Time;durP1;ratioP1;P1;durP2;ratioP2;P2;SDS_P1;SDS_P2;PMS_P1;PMS_P2;Temp;Humidity;BMP_temperature;BMP_pressure;BME280_temperature;BME280_humidity;BME280_pressure;Samples;Min_cycle;Max_cycle;Signal;HPM_P1;HPM_P2
2023/02/20 00:01:45;;;;;;;;;;;;;;;9.66;100.00;99665.44;5073265;28;877;-63
2023/02/20 00:04:12;;;;;;;;;;;;;;;9.61;100.00;99674.91;5073497;28;806;-65
2023/02/20 00:06:38;;;;;;;;;;;;;;;9.68;100.00;99671.34;5073533;28;1887;-65
2023/02/20 00:09:05;;;;;;;;;;;;;;;9.68;100.00;99665.03;5073914;28;1009;-66
2023/02/20 00:11:32;;;;;;;;;;;;;;;9.68;100.00;99673.31;5073025;28;1332;-67
2023/02/20 00:13:58;;;;;;;;;;;;;;;9.70;100.00;99657.94;5073562;28;840;-66
2023/02/20 00:16:25;;;;;;;;;;;;;;;9.70;100.00;99654.38;5072852;28;885;-61
2023/02/20 00:18:52;;;;;;;;;;;;;;;9.68;100.00;99652.03;5072899;28;819;-60
2023/02/20 00:21:18;;;;;;;;;;;;;;;9.66;100.00;99648.88;5072900;28;842;-61
2023/02/20 00:23:45;;;;;;;;;;;;;;;9.61;100.00;99638.25;5072744;28;842;-61
2023/02/20 00:26:12;;;;;;;;;;;;;;;9.55;100.00;99643.38;5072805;28;1963;-62
2023/02/20 00:28:40;;;;;;;;;;;;;;;9.49;100.00;99650.50;5072582;28;903;-62
2023/02/20 00:31:10;;;;;;;;;;;;;;;9.45;100.00;99641.44;5072561;28;961;-61
2023/02/20 00:33:37;;;;;;;;;;;;;;;9.55;100.00;99637.09;5072779;28;918;-61
2023/02/20 00:36:03;;;;;;;;;;;;;;;9.72;100.00;99640.97;5072772;28;806;-62
2023/02/20 00:38:30;;;;;;;;;;;;;;;9.90;100.00;99632.59;5072710;28;818;-63
2023/02/20 00:40:56;;;;;;;;;;;;;;;10.00;100.00;99632.53;5072821;28;874;-65
2023/02/20 00:43:23;;;;;;;;;;;;;;;10.14;100.00;99633.69;5072503;28;869;-64
2023/02/20 00:45:50;;;;;;;;;;;;;;;10.25;100.00;99625.31;5072691;28;853;-64
2023/02/20 00:48:17;;;;;;;;;;;;;;;10.32;100.00;99636.34;5072786;28;1965;-67
2023/02/20 00:50:43;;;;;;;;;;;;;;;10.38;100.00;99630.00;5072876;28;798;-65
2023/02/20 00:53:10;;;;;;;;;;;;;;;10.33;100.00;99630.44;5054421;28;822;-65
2023/02/20 00:55:36;;;;;;;;;;;;;;;10.29;100.00;99642.66;5054124;28;1274;-65
2023/02/20 00:58:02;;;;;;;;;;;;;;;10.19;100.00;99636.78;5071382;28;822;-65
2023/02/20 01:00:29;;;;;;;;;;;;;;;10.05;100.00;99639.66;5072047;28;791;-65
2023/02/20 01:02:55;;;;;;;;;;;;;;;9.91;100.00;99642.47;5054200;28;1281;-66
2023/02/20 01:05:22;;;;;;;;;;;;;;;9.86;100.00;99646.44;5071966;28;873;-67
2023/02/20 01:07:49;;;;;;;;;;;;;;;9.81;100.00;99639.38;5071987;28;1878;-67
2023/02/20 01:10:16;;;;;;;;;;;;;;;9.70;100.00;99635.84;5071727;28;1357;-66
2023/02/20 01:12:42;;;;;;;;;;;;;;;9.68;100.00;99629.16;5071879;28;826;-66
2023/02/20 01:15:10;;;;;;;;;;;;;;;9.61;100.00;99636.28;5071880;28;813;-66
2023/02/20 01:17:36;;;;;;;;;;;;;;;9.50;100.00;99635.53;5071763;28;825;-65
2023/02/20 01:20:03;;;;;;;;;;;;;;;9.43;100.00;99632.81;5071841;28;826;-65
2023/02/20 01:22:29;;;;;;;;;;;;;;;9.44;100.00;99634.38;5071800;28;822;-64
2023/02/20 01:24:56;;;;;;;;;;;;;;;9.47;100.00;99638.31;5071551;28;874;-66
2023/02/20 01:27:22;;;;;;;;;;;;;;;9.33;100.00;99623.38;5071714;28;1910;-66
2023/02/20 01:29:49;;;;;;;;;;;;;;;9.18;100.00;99619.84;5071576;28;861;-66
2023/02/20 01:32:15;;;;;;;;;;;;;;;9.08;100.00;99620.66;5071729;28;810;-66
2023/02/20 01:34:42;;;;;;;;;;;;;;;9.19;100.00;99642.69;5071553;28;905;-64
2023/02/20 01:37:12;;;;;;;;;;;;;;;9.40;100.00;99644.63;5071659;28;813;-65
2023/02/20 01:39:39;;;;;;;;;;;;;;;9.87;100.00;99650.75;5071581;28;889;-65
2023/02/20 01:42:07;;;;;;;;;;;;;;;9.79;100.00;99649.22;5071517;28;866;-65
2023/02/20 01:44:36;;;;;;;;;;;;;;;9.58;100.00;99659.16;5071748;28;806;-66
2023/02/20 01:47:06;;;;;;;;;;;;;;;9.31;100.00;99650.56;5071417;28;1935;-67
2023/02/20 01:49:34;;;;;;;;;;;;;;;9.22;100.00;99652.94;5072285;28;759;-67
2023/02/20 01:52:21;;;;;;;;;;;;;;;9.26;100.00;99661.19;5071568;28;882;-67
2023/02/20 01:55:10;;;;;;;;;;;;;;;9.11;100.00;99664.00;5071596;28;1282;-66
2023/02/20 01:57:39;;;;;;;;;;;;;;;9.84;100.00;99640.53;5053616;28;1436;-65
2023/02/20 02:00:12;;;;;;;;;;;;;;;10.40;100.00;99648.94;5053380;28;877;-66
2023/02/20 02:02:41;;;;;;;;;;;;;;;10.77;100.00;99639.94;5053375;28;1345;-65
2023/02/20 02:05:09;;;;;;;;;;;;;;;11.44;95.28;99631.44;5071341;28;846;-65
2023/02/20 02:07:36;;;;;;;;;;;;;;;11.75;92.78;99631.44;5071276;28;1886;-65
2023/02/20 02:10:06;;;;;;;;;;;;;;;11.84;87.03;99634.47;5073504;28;1407;-67
2023/02/20 02:12:32;;;;;;;;;;;;;;;11.94;85.74;99636.38;5057448;28;1393;-65
2023/02/20 02:14:59;;;;;;;;;;;;;;;12.02;85.09;99632.31;5075274;28;866;-68
2023/02/20 02:17:55;;;;;;;;;;;;;;;12.00;83.18;99620.09;5075224;28;875;-67
2023/02/20 02:20:33;;;;;;;;;;;;;;;11.95;83.66;99615.00;5040383;28;1276;-66
2023/02/20 02:23:19;;;;;;;;;;;;;;;12.16;82.23;99625.81;5075316;28;865;-66
2023/02/20 02:25:54;;;;;;;;;;;;;;;12.20;81.84;99623.75;5057036;28;1291;-65
2023/02/20 02:28:37;;;;;;;;;;;;;;;12.22;83.43;99640.72;5074927;28;1918;-65
2023/02/20 02:31:22;;;;;;;;;;;;;;;12.36;81.08;99650.06;5075021;28;818;-65
2023/02/20 02:33:49;;;;;;;;;;;;;;;12.39;80.51;99657.53;5074832;28;810;-63
2023/02/20 02:36:30;;;;;;;;;;;;;;;12.32;80.70;99655.66;5074838;28;920;-64
2023/02/20 02:39:02;;;;;;;;;;;;;;;12.30;81.52;99677.44;5074846;28;786;-64
2023/02/20 02:41:38;;;;;;;;;;;;;;;12.28;81.16;99668.75;5075001;28;803;-65
2023/02/20 02:44:23;;;;;;;;;;;;;;;12.22;80.77;99675.97;5074700;28;858;-65
2023/02/20 02:46:55;;;;;;;;;;;;;;;12.13;82.71;99678.47;5074562;28;1914;-65
2023/02/20 02:49:31;;;;;;;;;;;;;;;11.98;84.10;99681.44;5074634;28;818;-66
2023/02/20 02:51:59;;;;;;;;;;;;;;;11.99;83.33;99682.19;5074383;28;858;-66
2023/02/20 02:54:27;;;;;;;;;;;;;;;11.94;83.94;99680.69;5074503;28;827;-67
2023/02/20 02:57:11;;;;;;;;;;;;;;;11.81;84.01;99685.19;5074775;28;850;-67
2023/02/20 02:59:38;;;;;;;;;;;;;;;11.83;84.00;99682.78;5074366;28;868;-66
2023/02/20 03:02:09;;;;;;;;;;;;;;;11.86;83.92;99668.09;5074402;28;798;-67
2023/02/20 03:04:37;;;;;;;;;;;;;;;11.98;82.49;99673.13;5074358;28;802;-68
2023/02/20 03:07:06;;;;;;;;;;;;;;;11.93;82.59;99692.19;5074233;28;1890;-69
2023/02/20 03:09:36;;;;;;;;;;;;;;;11.84;83.74;99696.22;5074534;28;941;-67
2023/02/20 03:12:04;;;;;;;;;;;;;;;11.64;85.20;99701.56;5074620;28;845;-69
2023/02/20 03:17:31;;;;;;;;;;;;;;;11.52;85.68;99706.84;5074514;28;633;-70
2023/02/20 03:19:59;;;;;;;;;;;;;;;11.51;86.16;99711.59;5074212;28;897;-71
2023/02/20 03:22:52;;;;;;;;;;;;;;;11.38;86.46;99718.84;5073250;28;1035;-72
2023/02/20 03:25:25;;;;;;;;;;;;;;;11.22;87.25;99722.94;5070928;28;1128;-72
2023/02/20 03:28:02;;;;;;;;;;;;;;;11.20;88.68;99728.09;5074022;28;1973;-72
2023/02/20 03:30:38;;;;;;;;;;;;;;;11.33;87.93;99747.75;5073915;28;794;-70
2023/02/20 03:44:14;;;;;;;;;;;;;;;11.11;89.30;99772.03;5073676;28;624;-68
2023/02/20 03:46:42;;;;;;;;;;;;;;;11.08;88.99;99770.09;5073500;28;1954;-68
2023/02/20 03:49:11;;;;;;;;;;;;;;;11.21;87.99;99767.63;5073420;28;885;-69
2023/02/20 03:51:39;;;;;;;;;;;;;;;11.28;87.87;99777.84;5073550;28;851;-68
2023/02/20 03:54:06;;;;;;;;;;;;;;;11.21;88.32;99776.69;5073327;28;866;-70
2023/02/20 03:56:43;;;;;;;;;;;;;;;11.12;88.93;99784.69;5073473;28;873;-67
2023/02/20 03:59:25;;;;;;;;;;;;;;;11.09;88.87;99779.94;5073277;28;826;-68
2023/02/20 04:01:55;;;;;;;;;;;;;;;11.03;89.34;99773.25;5073574;28;794;-71
2023/02/20 04:04:28;;;;;;;;;;;;;;;11.11;88.54;99776.78;5073209;28;810;-69
2023/02/20 04:06:55;;;;;;;;;;;;;;;11.07;89.12;99787.09;5073099;28;1956;-70
2023/02/20 04:09:27;;;;;;;;;;;;;;;11.01;89.23;99800.56;5073184;28;880;-70
2023/02/20 04:11:59;;;;;;;;;;;;;;;10.93;89.18;99794.28;5073619;28;1092;-70
2023/02/20 04:14:27;;;;;;;;;;;;;;;10.98;87.66;99793.84;5073086;28;897;-69
2023/02/20 04:16:57;;;;;;;;;;;;;;;11.06;87.02;99797.38;5073162;28;834;-70
2023/02/20 04:19:24;;;;;;;;;;;;;;;10.94;88.12;99792.31;5072977;28;834;-70
2023/02/20 04:21:54;;;;;;;;;;;;;;;10.72;88.83;99794.41;5072855;28;866;-70
2023/02/20 04:24:28;;;;;;;;;;;;;;;10.71;88.93;99813.00;5072811;28;889;-69
2023/02/20 04:26:55;;;;;;;;;;;;;;;10.86;87.80;99815.66;5072670;28;1907;-69
2023/02/20 04:29:22;;;;;;;;;;;;;;;10.83;87.74;99818.03;5072715;28;819;-69
2023/02/20 04:31:48;;;;;;;;;;;;;;;10.73;87.77;99829.97;5072603;28;854;-69
2023/02/20 04:34:15;;;;;;;;;;;;;;;10.72;88.84;99831.13;5072494;28;890;-68
2023/02/20 04:36:41;;;;;;;;;;;;;;;10.62;89.16;99818.16;5072610;28;799;-68
2023/02/20 04:39:08;;;;;;;;;;;;;;;10.63;88.86;99822.50;5072653;28;841;-68
2023/02/20 04:41:34;;;;;;;;;;;;;;;10.61;88.79;99836.72;5072520;28;819;-68
2023/02/20 04:46:46;;;;;;;;;;;;;;;10.34;90.80;99833.66;5072327;28;1943;-68
2023/02/20 04:49:12;;;;;;;;;;;;;;;10.32;91.07;99832.50;5072501;28;869;-68
2023/02/20 04:51:39;;;;;;;;;;;;;;;10.38;90.37;99837.19;5072177;28;806;-69
2023/02/20 04:54:06;;;;;;;;;;;;;;;10.28;91.05;99835.22;5072222;28;917;-68
2023/02/20 04:56:32;;;;;;;;;;;;;;;10.18;92.04;99838.84;5072248;28;897;-67
2023/02/20 04:58:59;;;;;;;;;;;;;;;10.18;91.78;99849.88;5072221;28;806;-67
2023/02/20 05:01:25;;;;;;;;;;;;;;;10.10;92.15;99846.34;5072168;28;815;-68
2023/02/20 05:03:51;;;;;;;;;;;;;;;10.16;92.20;99852.25;5072134;28;902;-69
2023/02/20 05:06:18;;;;;;;;;;;;;;;10.25;90.77;99860.91;5072262;28;821;-68
2023/02/20 05:08:45;;;;;;;;;;;;;;;10.30;91.08;99862.50;5071888;28;1951;-68
2023/02/20 05:11:11;;;;;;;;;;;;;;;10.24;91.27;99864.84;5050509;28;1316;-68
2023/02/20 05:13:38;;;;;;;;;;;;;;;10.12;92.19;99874.34;5051954;28;818;-69
2023/02/20 05:16:06;;;;;;;;;;;;;;;10.11;92.24;99888.53;5051975;28;861;-68
2023/02/20 05:18:32;;;;;;;;;;;;;;;10.08;92.83;99894.88;5051864;28;929;-69
2023/02/20 05:23:46;;;;;;;;;;;;;;;10.10;92.91;99920.91;5052200;28;661;-68
2023/02/20 05:26:16;;;;;;;;;;;;;;;10.17;91.83;99909.84;5051959;28;884;-68
2023/02/20 05:28:44;;;;;;;;;;;;;;;10.47;88.91;99916.13;5051711;28;1952;-68
2023/02/20 05:31:09;;;;;;;;;;;;;;;10.62;88.83;99920.41;5051755;28;881;-68
2023/02/20 05:33:36;;;;;;;;;;;;;;;10.60;88.62;99931.09;5051584;28;857;-68
2023/02/20 05:36:04;;;;;;;;;;;;;;;10.67;89.09;99949.63;5051997;28;814;-68
2023/02/20 05:38:30;;;;;;;;;;;;;;;10.77;86.93;99943.28;5051633;28;830;-68
2023/02/20 05:40:57;;;;;;;;;;;;;;;10.87;86.98;99944.44;5051590;28;881;-68
2023/02/20 05:46:26;;;;;;;;;;;;;;;11.00;86.63;99946.34;5051476;28;1894;-68
2023/02/20 05:48:53;;;;;;;;;;;;;;;10.94;87.35;99947.94;5051436;28;842;-69
2023/02/20 05:51:27;;;;;;;;;;;;;;;10.97;86.78;99949.16;5051466;28;806;-69
2023/02/20 05:53:53;;;;;;;;;;;;;;;11.08;86.71;99955.41;5051522;28;826;-70
2023/02/20 05:56:20;;;;;;;;;;;;;;;11.25;85.98;99959.28;5051393;28;910;-70
2023/02/20 05:58:47;;;;;;;;;;;;;;;11.35;86.57;99952.09;5051516;28;874;-68
2023/02/20 06:01:21;;;;;;;;;;;;;;;11.30;86.48;99966.38;5051496;28;897;-68
2023/02/20 06:03:48;;;;;;;;;;;;;;;11.24;87.46;99963.22;5051563;28;915;-68
2023/02/20 06:06:14;;;;;;;;;;;;;;;11.25;87.03;99962.03;5051370;28;810;-69
2023/02/20 06:08:41;;;;;;;;;;;;;;;11.27;86.95;99958.88;5051114;28;1878;-69
2023/02/20 06:11:08;;;;;;;;;;;;;;;11.23;86.68;99965.22;5063639;28;1206;-70
2023/02/20 06:13:35;;;;;;;;;;;;;;;11.18;87.25;99954.56;5071233;28;862;-69
2023/02/20 06:16:02;;;;;;;;;;;;;;;11.11;87.16;99951.03;5071143;28;847;-69
2023/02/20 06:18:28;;;;;;;;;;;;;;;10.98;87.27;99959.78;5053117;28;1437;-69
2023/02/20 06:20:55;;;;;;;;;;;;;;;10.92;87.53;99966.13;5071487;28;819;-68
2023/02/20 06:23:22;;;;;;;;;;;;;;;10.86;87.93;99978.78;5071225;28;881;-68
2023/02/20 06:25:48;;;;;;;;;;;;;;;10.91;87.98;99965.34;5071137;28;893;-69
2023/02/20 06:28:15;;;;;;;;;;;;;;;11.10;87.34;99977.91;5071217;28;1965;-69
2023/02/20 06:30:42;;;;;;;;;;;;;;;11.51;85.46;99977.31;5071010;28;929;-70
2023/02/20 06:33:08;;;;;;;;;;;;;;;12.31;82.83;99972.78;5071119;28;818;-69
2023/02/20 06:35:34;;;;;;;;;;;;;;;12.25;81.83;99983.53;5071017;28;913;-69
2023/02/20 06:38:01;;;;;;;;;;;;;;;11.98;83.30;99997.19;5070995;28;886;-71
2023/02/20 06:40:27;;;;;;;;;;;;;;;12.15;81.00;99994.72;5071029;28;894;-68
2023/02/20 06:42:54;;;;;;;;;;;;;;;12.22;80.97;99998.19;5070953;28;881;-69
2023/02/20 06:45:21;;;;;;;;;;;;;;;12.39;81.12;99977.06;5071299;28;822;-70
2023/02/20 06:47:47;;;;;;;;;;;;;;;12.40;79.86;99981.41;5070772;28;1948;-68
2023/02/20 06:50:14;;;;;;;;;;;;;;;12.39;79.05;99996.47;5070877;28;881;-70
2023/02/20 06:52:40;;;;;;;;;;;;;;;12.64;78.27;100003.75;5070980;28;802;-69
2023/02/20 06:55:07;;;;;;;;;;;;;;;12.70;78.00;100015.97;5071110;28;846;-69
2023/02/20 06:57:33;;;;;;;;;;;;;;;12.70;78.63;100017.97;5055893;28;1183;-69
2023/02/20 07:00:00;;;;;;;;;;;;;;;12.80;71.97;100023.41;5074772;28;893;-69
2023/02/20 07:02:26;;;;;;;;;;;;;;;12.97;71.98;100051.34;5074613;28;870;-71
2023/02/20 07:04:53;;;;;;;;;;;;;;;13.61;69.38;100033.16;5056464;28;1247;-71
2023/02/20 07:07:20;;;;;;;;;;;;;;;13.35;69.78;100052.13;5074833;28;1945;-70
2023/02/20 07:09:47;;;;;;;;;;;;;;;12.92;68.98;100040.72;5074154;28;1458;-69
2023/02/20 07:12:13;;;;;;;;;;;;;;;11.79;73.92;100059.41;5075119;28;937;-69
2023/02/20 07:14:39;;;;;;;;;;;;;;;11.32;76.29;100063.59;5074139;28;833;-69
2023/02/20 07:17:06;;;;;;;;;;;;;;;11.09;77.87;100062.09;5056147;28;1282;-69
2023/02/20 07:19:32;;;;;;;;;;;;;;;10.91;78.95;100083.47;5074023;28;839;-70
2023/02/20 07:21:59;;;;;;;;;;;;;;;10.78;79.82;100083.09;5074142;28;830;-71
2023/02/20 07:24:27;;;;;;;;;;;;;;;10.61;80.85;100060.59;5073943;28;811;-68
2023/02/20 07:26:53;;;;;;;;;;;;;;;10.46;82.16;100066.53;5055865;28;1918;-69
2023/02/20 07:29:21;;;;;;;;;;;;;;;10.33;82.48;100069.69;5073896;28;992;-67
2023/02/20 07:31:47;;;;;;;;;;;;;;;10.26;83.18;100083.47;5073827;28;834;-68
2023/02/20 07:34:14;;;;;;;;;;;;;;;10.23;83.08;100087.03;5073842;28;854;-69
2023/02/20 07:36:41;;;;;;;;;;;;;;;10.14;84.29;100081.09;5055744;28;1394;-69
2023/02/20 07:39:07;;;;;;;;;;;;;;;10.02;85.60;100098.81;5073788;28;873;-69
2023/02/20 07:41:34;;;;;;;;;;;;;;;9.93;86.20;100104.72;5073683;28;846;-69
2023/02/20 07:44:01;;;;;;;;;;;;;;;9.84;87.38;100114.56;5073692;28;904;-69
2023/02/20 07:46:32;;;;;;;;;;;;;;;9.78;88.15;100114.16;5073517;28;1947;-69
2023/02/20 07:49:03;;;;;;;;;;;;;;;9.72;88.22;100123.97;5073807;28;838;-69
2023/02/20 07:51:29;;;;;;;;;;;;;;;9.69;88.10;100133.06;5073415;28;798;-70
2023/02/20 07:53:57;;;;;;;;;;;;;;;9.60;88.10;100127.88;5073547;28;897;-68
2023/02/20 07:56:24;;;;;;;;;;;;;;;9.55;88.43;100139.28;5073398;28;874;-70
2023/02/20 07:58:50;;;;;;;;;;;;;;;9.61;88.46;100149.56;5073327;28;818;-69
2023/02/20 08:01:17;;;;;;;;;;;;;;;9.61;87.66;100149.56;5073289;28;909;-68
2023/02/20 08:03:42;;;;;;;;;;;;;;;9.63;88.80;100162.19;5073295;28;819;-69
2023/02/20 08:06:09;;;;;;;;;;;;;;;9.68;89.05;100167.34;5073558;28;803;-69
2023/02/20 08:08:35;;;;;;;;;;;;;;;9.45;90.66;100173.13;5072852;28;1881;-69
2023/02/20 08:14:22;;;;;;;;;;;;;;;9.19;91.68;100181.25;5053120;28;602;-70
2023/02/20 08:16:48;;;;;;;;;;;;;;;9.18;93.21;100185.19;5052942;28;822;-68
2023/02/20 08:19:15;;;;;;;;;;;;;;;9.08;93.77;100182.34;5052969;28;890;-69
2023/02/20 08:21:41;;;;;;;;;;;;;;;8.79;94.38;100188.44;5052938;28;928;-69
2023/02/20 08:24:08;;;;;;;;;;;;;;;8.69;95.37;100186.38;5052869;28;870;-70
2023/02/20 08:26:34;;;;;;;;;;;;;;;8.55;96.44;100195.28;5052788;28;1914;-70
2023/02/20 08:29:01;;;;;;;;;;;;;;;8.46;97.29;100202.31;5052900;28;786;-71
2023/02/20 08:31:27;;;;;;;;;;;;;;;8.42;97.37;100196.75;5052937;28;866;-69
2023/02/20 08:33:53;;;;;;;;;;;;;;;8.45;96.91;100201.53;5052938;28;881;-69
2023/02/20 08:36:20;;;;;;;;;;;;;;;8.54;96.13;100210.25;5052697;28;889;-69
2023/02/20 08:38:46;;;;;;;;;;;;;;;9.01;94.24;100202.41;5052636;28;798;-69
2023/02/20 08:41:13;;;;;;;;;;;;;;;9.36;90.39;100188.06;5052568;28;864;-71
2023/02/20 08:43:40;;;;;;;;;;;;;;;9.54;89.11;100187.38;5052758;28;818;-71
2023/02/20 08:46:07;;;;;;;;;;;;;;;9.59;88.15;100184.25;5052426;28;818;-69
2023/02/20 08:48:33;;;;;;;;;;;;;;;9.37;87.61;100173.09;5052673;28;1902;-70
2023/02/20 08:51:00;;;;;;;;;;;;;;;9.16;90.01;100178.47;5052438;28;845;-69
2023/02/20 08:53:26;;;;;;;;;;;;;;;9.91;86.09;100170.59;5052308;28;807;-70
2023/02/20 08:55:52;;;;;;;;;;;;;;;9.92;83.75;100185.19;5052488;28;826;-69
2023/02/20 08:58:23;;;;;;;;;;;;;;;9.64;86.13;100205.94;5052353;28;806;-71
2023/02/20 09:00:50;;;;;;;;;;;;;;;9.93;85.60;100230.94;5052164;28;952;-70
2023/02/20 09:03:17;;;;;;;;;;;;;;;10.41;81.59;100242.59;5052315;28;811;-72
2023/02/20 09:05:44;;;;;;;;;;;;;;;10.52;80.37;100248.16;5052127;28;944;-72
2023/02/20 09:08:11;;;;;;;;;;;;;;;10.32;79.60;100258.75;5051992;28;1889;-69
2023/02/20 09:10:37;;;;;;;;;;;;;;;10.20;80.98;100276.44;5060101;28;1415;-69
2023/02/20 09:13:04;;;;;;;;;;;;;;;10.02;81.59;100284.63;5071881;28;842;-69
2023/02/20 09:15:37;;;;;;;;;;;;;;;9.89;81.86;100277.06;5071891;28;881;-69
2023/02/20 09:18:08;;;;;;;;;;;;;;;9.86;81.56;100281.41;5071725;28;862;-69
2023/02/20 09:20:36;;;;;;;;;;;;;;;9.73;80.65;100289.22;5071448;28;826;-72
2023/02/20 09:23:03;;;;;;;;;;;;;;;10.05;81.63;100274.00;5071838;28;893;-70
2023/02/20 09:25:30;;;;;;;;;;;;;;;10.54;78.73;100267.91;5071667;28;865;-70
2023/02/20 09:27:56;;;;;;;;;;;;;;;11.01;77.47;100266.00;5071940;28;1910;-71
2023/02/20 09:30:23;;;;;;;;;;;;;;;11.14;75.06;100258.09;5071615;28;869;-73
2023/02/20 09:32:50;;;;;;;;;;;;;;;11.15;74.09;100256.91;5071709;28;799;-73
2023/02/20 09:35:21;;;;;;;;;;;;;;;11.24;75.41;100249.03;5071614;28;882;-71
2023/02/20 09:37:48;;;;;;;;;;;;;;;11.45;73.16;100256.50;5071603;28;818;-74
2023/02/20 10:08:42;;;;;;;;;;;;;;;9.21;80.49;100288.44;5801979;22;2561;-69
2023/02/20 10:11:11;;;;;;;;;;;;;;;9.11;81.34;100291.88;5051345;28;862;-69
2023/02/20 10:13:51;;;;;;;;;;;;;;;9.09;81.70;100292.28;5051368;28;798;-69
2023/02/20 10:16:23;;;;;;;;;;;;;;;9.10;82.14;100288.34;5051301;28;857;-70
2023/02/20 10:19:00;;;;;;;;;;;;;;;9.29;80.95;100286.53;5051240;28;861;-70
2023/02/20 10:21:38;;;;;;;;;;;;;;;9.25;81.47;100288.47;5051936;28;822;-70
2023/02/20 10:24:08;;;;;;;;;;;;;;;9.27;81.29;100292.44;5051182;28;810;-70
2023/02/20 10:26:39;;;;;;;;;;;;;;;9.38;81.23;100281.47;5051144;28;1918;-72
2023/02/20 10:29:21;;;;;;;;;;;;;;;9.26;80.86;100279.00;5051154;28;811;-72
2023/02/20 10:31:50;;;;;;;;;;;;;;;9.20;81.75;100282.13;5054859;28;882;-71
2023/02/20 10:34:21;;;;;;;;;;;;;;;9.14;80.90;100280.91;5037326;28;1222;-71
2023/02/20 10:36:52;;;;;;;;;;;;;;;8.88;81.57;100283.81;5037051;28;1207;-72
2023/02/20 10:39:20;;;;;;;;;;;;;;;8.57;83.18;100285.84;5055285;28;865;-72
2023/02/20 10:42:19;;;;;;;;;;;;;;;8.37;84.20;100293.47;5054959;28;870;-70
2023/02/20 10:45:09;;;;;;;;;;;;;;;8.70;84.82;100302.91;5021295;28;1266;-71
2023/02/20 10:47:41;;;;;;;;;;;;;;;8.79;82.16;100295.94;5046558;28;1948;-71
2023/02/20 10:50:11;;;;;;;;;;;;;;;8.72;83.53;100311.59;5054679;28;834;-70
2023/02/20 10:52:46;;;;;;;;;;;;;;;8.94;82.16;100304.31;5054762;28;810;-70
2023/02/20 10:55:27;;;;;;;;;;;;;;;9.02;82.73;100306.00;5054545;28;981;-69
2023/02/20 10:58:02;;;;;;;;;;;;;;;8.82;81.48;100301.88;5054550;28;838;-71
2023/02/20 11:00:49;;;;;;;;;;;;;;;8.51;83.84;100303.88;5054488;28;892;-72
2023/02/20 11:03:21;;;;;;;;;;;;;;;8.61;84.09;100300.47;5036495;28;1183;-69
2023/02/20 11:05:52;;;;;;;;;;;;;;;8.67;83.82;100298.16;5054412;28;822;-69
2023/02/20 11:08:20;;;;;;;;;;;;;;;8.94;84.34;100283.09;5054189;28;1886;-69
2023/02/20 11:10:47;;;;;;;;;;;;;;;9.23;81.72;100277.81;5054137;28;1276;-71
2023/02/20 11:13:19;;;;;;;;;;;;;;;9.25;80.42;100280.97;5054271;28;806;-69
2023/02/20 11:15:45;;;;;;;;;;;;;;;9.14;81.63;100267.09;5054244;28;810;-69
2023/02/20 11:18:47;;;;;;;;;;;;;;;9.05;81.11;100263.88;5054156;28;850;-71
2023/02/20 11:21:34;;;;;;;;;;;;;;;9.28;80.99;100274.72;4992660;28;1272;-72
2023/02/20 11:24:18;;;;;;;;;;;;;;;9.20;80.90;100290.41;4992525;28;1145;-70
2023/02/20 11:26:45;;;;;;;;;;;;;;;8.98;81.72;100283.09;4992569;28;1918;-71
2023/02/20 11:29:16;;;;;;;;;;;;;;;8.92;81.98;100282.69;4992559;28;991;-70
2023/02/20 11:31:43;;;;;;;;;;;;;;;8.67;81.62;100298.94;4992538;28;819;-70
2023/02/20 11:34:17;;;;;;;;;;;;;;;8.33;84.29;100300.91;4992569;28;842;-69
2023/02/20 11:36:51;;;;;;;;;;;;;;;8.04;86.74;100288.72;4992530;28;936;-70
2023/02/20 11:39:17;;;;;;;;;;;;;;;8.02;86.99;100288.31;4992647;28;902;-70
2023/02/20 11:41:44;;;;;;;;;;;;;;;8.14;86.52;100275.09;4991702;28;1050;-68
2023/02/20 11:44:13;;;;;;;;;;;;;;;8.33;85.78;100268.63;4992342;28;894;-70
2023/02/20 11:46:40;;;;;;;;;;;;;;;8.43;85.23;100256.19;4992284;28;1945;-70
2023/02/20 11:49:08;;;;;;;;;;;;;;;8.50;84.32;100270.03;4992161;28;920;-70
2023/02/20 11:51:37;;;;;;;;;;;;;;;8.54;84.07;100246.06;4992176;28;911;-70
2023/02/20 11:54:07;;;;;;;;;;;;;;;8.52;83.44;100262.19;4994795;28;1146;-69
2023/02/20 11:56:33;;;;;;;;;;;;;;;8.26;84.55;100267.78;5053481;28;815;-69
2023/02/20 11:59:18;;;;;;;;;;;;;;;8.11;85.30;100261.31;5053363;28;865;-68
2023/02/20 12:01:44;;;;;;;;;;;;;;;8.01;86.39;100281.22;5053427;28;794;-68
2023/02/20 12:04:22;;;;;;;;;;;;;;;7.93;86.65;100272.84;5053391;28;814;-71
2023/02/20 12:06:49;;;;;;;;;;;;;;;7.84;86.90;100266.06;5035601;28;1946;-69
2023/02/20 12:09:19;;;;;;;;;;;;;;;7.87;87.44;100271.63;5053448;28;1269;-70
2023/02/20 12:11:46;;;;;;;;;;;;;;;7.93;86.76;100267.34;5053496;28;794;-69
2023/02/20 12:14:14;;;;;;;;;;;;;;;7.96;87.09;100263.88;5053123;28;863;-71
2023/02/20 12:16:58;;;;;;;;;;;;;;;7.86;86.57;100275.53;5053156;28;813;-69
2023/02/20 12:19:36;;;;;;;;;;;;;;;7.89;86.85;100274.75;5053354;28;826;-70
2023/02/20 12:22:14;;;;;;;;;;;;;;;7.96;86.95;100282.34;5053022;28;963;-69
2023/02/20 12:24:58;;;;;;;;;;;;;;;7.93;86.72;100291.34;5053214;28;841;-68
2023/02/20 12:27:33;;;;;;;;;;;;;;;8.00;86.72;100301.66;5052759;28;1964;-70
2023/02/20 12:29:59;;;;;;;;;;;;;;;8.09;85.84;100296.66;5052858;28;826;-68
2023/02/20 12:32:26;;;;;;;;;;;;;;;8.10;85.70;100303.75;5034857;28;1227;-68
2023/02/20 12:35:11;;;;;;;;;;;;;;;8.14;85.85;100299.09;5052756;28;845;-70
2023/02/20 12:38:00;;;;;;;;;;;;;;;8.22;84.42;100294.47;5052809;28;822;-70
2023/02/20 12:40:41;;;;;;;;;;;;;;;8.35;84.59;100293.06;5052649;28;819;-71
2023/02/20 12:43:23;;;;;;;;;;;;;;;8.43;83.97;100292.00;5052569;28;794;-70
2023/02/20 12:45:58;;;;;;;;;;;;;;;8.57;83.19;100294.13;5052544;28;877;-69
2023/02/20 12:48:34;;;;;;;;;;;;;;;8.70;82.86;100294.66;5052393;28;1953;-69
2023/02/20 12:51:00;;;;;;;;;;;;;;;8.80;81.74;100302.25;5052434;28;865;-70
2023/02/20 12:53:30;;;;;;;;;;;;;;;8.87;81.12;100313.31;5051878;28;842;-71
2023/02/20 12:56:04;;;;;;;;;;;;;;;9.04;80.61;100320.19;5052181;28;831;-71
2023/02/20 12:58:35;;;;;;;;;;;;;;;9.34;79.90;100327.56;5052280;28;869;-70
2023/02/20 13:01:11;;;;;;;;;;;;;;;9.61;78.45;100320.66;5052161;28;815;-69
2023/02/20 13:03:40;;;;;;;;;;;;;;;9.74;77.88;100321.16;5052345;28;878;-70
2023/02/20 13:06:09;;;;;;;;;;;;;;;9.78;77.40;100323.94;5052250;28;857;-70
2023/02/20 13:08:50;;;;;;;;;;;;;;;9.95;77.02;100317.75;5051960;28;1918;-70
2023/02/20 13:11:19;;;;;;;;;;;;;;;9.93;76.26;100308.25;5052181;28;830;-70
2023/02/20 13:13:59;;;;;;;;;;;;;;;10.10;76.04;100304.03;5034154;28;1722;-70
2023/02/20 13:16:24;;;;;;;;;;;;;;;10.18;75.15;100300.91;5052001;28;807;-70
2023/02/20 13:19:01;;;;;;;;;;;;;;;10.02;74.48;100290.16;5051876;28;830;-71
2023/02/20 13:21:28;;;;;;;;;;;;;;;9.82;75.67;100295.19;5052130;28;826;-70
2023/02/20 13:24:15;;;;;;;;;;;;;;;9.73;76.94;100282.88;5051841;28;900;-70
2023/02/20 13:26:54;;;;;;;;;;;;;;;9.48;76.76;100288.25;5040994;28;1916;-70
2023/02/20 13:29:26;;;;;;;;;;;;;;;9.78;77.10;100290.81;5051830;28;803;-69
2023/02/20 13:31:57;;;;;;;;;;;;;;;10.31;74.91;100275.72;5051931;28;826;-70
2023/02/20 13:34:27;;;;;;;;;;;;;;;10.10;74.50;100281.91;5051573;28;881;-71
2023/02/20 13:36:54;;;;;;;;;;;;;;;9.70;75.23;100272.63;5051579;28;857;-71
2023/02/20 13:39:21;;;;;;;;;;;;;;;9.48;76.33;100277.22;5051914;28;826;-71
2023/02/20 13:41:54;;;;;;;;;;;;;;;9.31;77.23;100278.66;5033686;28;1567;-70
2023/02/20 13:44:45;;;;;;;;;;;;;;;9.17;78.58;100276.56;5051581;28;798;-70
2023/02/20 13:47:16;;;;;;;;;;;;;;;9.12;78.98;100283.25;5044063;28;1931;-72
2023/02/20 13:49:46;;;;;;;;;;;;;;;8.80;79.94;100282.94;5051774;28;889;-72
2023/02/20 13:52:33;;;;;;;;;;;;;;;8.61;81.45;100275.66;5051511;28;814;-70
2023/02/20 13:55:03;;;;;;;;;;;;;;;8.46;81.88;100274.72;5051509;28;876;-71
2023/02/20 13:57:32;;;;;;;;;;;;;;;8.40;82.27;100276.19;5051545;28;794;-70
2023/02/20 14:00:00;;;;;;;;;;;;;;;8.46;81.96;100279.44;5051594;28;825;-71
2023/02/20 14:02:30;;;;;;;;;;;;;;;8.49;81.96;100278.66;5051458;28;888;-69
2023/02/20 14:05:00;;;;;;;;;;;;;;;8.49;82.10;100275.91;5051865;28;890;-69
2023/02/20 14:07:36;;;;;;;;;;;;;;;9.11;80.90;100267.88;5055446;28;1943;-70
2023/02/20 14:10:06;;;;;;;;;;;;;;;9.55;77.70;100280.03;5055164;28;1262;-71
2023/02/20 14:12:33;;;;;;;;;;;;;;;9.89;76.63;100274.31;5055375;28;798;-69